createdAt,value
2022-11-27T00:01:39.291Z,10.77
2022-11-27T00:04:10.514Z,11.73
2022-11-27T00:06:41.838Z,12.20
2022-11-27T00:09:13.720Z,12.33
2022-11-27T00:11:42.252Z,11.63
2022-11-27T00:14:13.334Z,11.33
2022-11-27T00:16:47.788Z,11.10
2022-11-27T00:19:16.233Z,10.13
2022-11-27T00:21:44.587Z,11.07
2022-11-27T00:24:13.620Z,10.93
2022-11-27T00:26:41.937Z,11.10
2022-11-27T00:29:11.079Z,11.10
2022-11-27T00:31:39.457Z,11.33
2022-11-27T00:34:10.200Z,11.83
2022-11-27T00:36:39.806Z,10.63
2022-11-27T00:39:11.459Z,12.53
2022-11-27T00:41:40.153Z,12.27
2022-11-27T00:44:08.474Z,10.43
2022-11-27T00:46:37.122Z,10.60
2022-11-27T00:49:09.211Z,10.80
2022-11-27T00:51:37.483Z,11.00
2022-11-27T00:54:06.341Z,12.43
2022-11-27T00:56:37.447Z,11.10
2022-11-27T00:59:06.479Z,11.70
2022-11-27T01:01:38.129Z,10.77
2022-11-27T01:04:11.726Z,10.90
2022-11-27T01:06:40.515Z,10.63
2022-11-27T01:09:09.097Z,12.20
2022-11-27T01:11:37.939Z,11.97
2022-11-27T01:14:16.460Z,10.80
2022-11-27T01:16:44.895Z,12.17
2022-11-27T01:19:16.121Z,11.70
2022-11-27T01:21:44.511Z,12.90
2022-11-27T01:24:15.186Z,15.87
2022-11-27T01:26:44.011Z,12.03
2022-11-27T01:29:12.759Z,11.23
2022-11-27T01:31:41.198Z,11.03
2022-11-27T01:34:16.141Z,13.77
2022-11-27T01:36:44.510Z,11.67
2022-11-27T01:39:17.644Z,8.90
2022-11-27T01:41:47.199Z,12.40
2022-11-27T01:44:52.251Z,11.53
2022-11-27T01:47:34.075Z,11.47
2022-11-27T01:50:12.344Z,12.17
2022-11-27T01:52:47.207Z,14.23
2022-11-27T01:55:22.048Z,15.37
2022-11-27T01:57:55.467Z,12.07
2022-11-27T02:00:24.656Z,14.73
2022-11-27T02:02:53.110Z,13.57
2022-11-27T02:05:26.195Z,11.83
2022-11-27T02:07:55.575Z,10.93
2022-11-27T02:10:29.135Z,13.10
2022-11-27T02:13:15.239Z,10.67
2022-11-27T02:15:49.776Z,10.80
2022-11-27T02:18:27.954Z,10.50
2022-11-27T02:21:07.422Z,10.83
2022-11-27T02:24:10.149Z,9.00
2022-11-27T02:27:36.173Z,10.80
2022-11-27T02:30:08.671Z,12.23
2022-11-27T02:32:42.613Z,8.97
2022-11-27T02:35:18.258Z,11.27
2022-11-27T02:37:50.460Z,9.53
2022-11-27T02:40:26.182Z,10.73
2022-11-27T02:43:00.712Z,9.33
2022-11-27T02:45:35.366Z,9.70
2022-11-27T02:48:06.397Z,11.40
2022-11-27T02:50:38.340Z,10.97
2022-11-27T02:53:14.061Z,12.03
2022-11-27T02:55:44.070Z,9.83
2022-11-27T02:58:18.521Z,11.23
2022-11-27T03:00:49.063Z,10.30
2022-11-27T03:03:22.384Z,10.47
2022-11-27T03:05:54.516Z,10.47
2022-11-27T03:08:31.125Z,10.20
2022-11-27T03:11:05.527Z,10.10
2022-11-27T03:13:39.500Z,9.90
2022-11-27T03:16:16.761Z,9.13
2022-11-27T03:18:57.666Z,9.60
2022-11-27T03:21:32.074Z,9.10
2022-11-27T03:24:00.549Z,8.47
2022-11-27T03:26:29.009Z,7.97
2022-11-27T03:28:59.536Z,7.87
2022-11-27T03:31:29.852Z,8.63
2022-11-27T03:33:59.159Z,9.93
2022-11-27T03:36:27.438Z,9.83
2022-11-27T03:38:56.536Z,8.17
2022-11-27T03:41:35.684Z,7.83
2022-11-27T03:44:14.439Z,8.17
2022-11-27T03:47:04.740Z,8.33
2022-11-27T03:49:48.643Z,8.27
2022-11-27T03:52:28.062Z,7.77
2022-11-27T03:55:14.772Z,7.47
2022-11-27T03:57:51.781Z,6.13
2022-11-27T04:00:20.557Z,7.27
2022-11-27T04:02:53.926Z,9.87
2022-11-27T04:05:22.502Z,8.50
2022-11-27T04:07:50.949Z,7.80
2022-11-27T04:10:19.480Z,7.23
2022-11-27T04:12:47.787Z,7.83
2022-11-27T04:15:16.023Z,8.87
2022-11-27T04:17:44.206Z,8.40
2022-11-27T04:20:15.548Z,8.03
2022-11-27T04:22:43.818Z,8.07
2022-11-27T04:25:12.119Z,8.20
2022-11-27T04:27:40.415Z,7.87
2022-11-27T04:30:10.125Z,8.23
2022-11-27T04:32:38.394Z,8.13
2022-11-27T04:35:07.796Z,7.63
2022-11-27T04:37:37.853Z,8.00
2022-11-27T04:40:08.258Z,8.63
2022-11-27T04:42:36.495Z,8.20
2022-11-27T04:45:05.315Z,8.83
2022-11-27T04:47:33.566Z,7.93
2022-11-27T04:50:01.846Z,7.80
2022-11-27T04:52:30.160Z,8.80
2022-11-27T04:55:00.386Z,9.53
2022-11-27T04:57:28.990Z,9.90
2022-11-27T04:59:57.292Z,9.27
2022-11-27T05:02:25.722Z,8.80
2022-11-27T05:04:54.195Z,8.93
2022-11-27T05:07:22.565Z,7.77
2022-11-27T05:09:50.839Z,9.60
2022-11-27T05:12:20.417Z,9.87
2022-11-27T05:14:48.730Z,9.60
2022-11-27T05:17:17.066Z,8.97
2022-11-27T05:19:45.312Z,9.43
2022-11-27T05:22:13.523Z,8.97
2022-11-27T05:24:42.025Z,10.83
2022-11-27T05:27:10.510Z,10.07
2022-11-27T05:29:40.520Z,9.60
2022-11-27T05:32:08.798Z,9.40
2022-11-27T05:34:37.066Z,9.77
2022-11-27T05:37:05.404Z,10.07
2022-11-27T05:39:33.621Z,11.03
2022-11-27T05:42:01.902Z,10.83
2022-11-27T05:44:30.426Z,10.37
2022-11-27T05:47:00.059Z,11.60
2022-11-27T05:49:28.383Z,10.87
2022-11-27T05:51:56.629Z,11.67
2022-11-27T05:54:24.828Z,12.53
2022-11-27T05:56:53.074Z,11.30
2022-11-27T05:59:21.450Z,10.93
2022-11-27T06:01:50.402Z,11.13
2022-11-27T06:04:20.482Z,9.73
2022-11-27T06:06:48.772Z,10.63
2022-11-27T06:09:17.044Z,9.50
2022-11-27T06:11:45.360Z,10.37
2022-11-27T06:14:13.616Z,8.10
2022-11-27T06:16:41.995Z,9.03
2022-11-27T06:19:10.325Z,7.83
2022-11-27T06:21:40.109Z,8.70
2022-11-27T06:24:08.765Z,7.90
2022-11-27T06:26:37.100Z,7.60
2022-11-27T06:29:05.399Z,7.90
2022-11-27T06:31:34.826Z,7.40
2022-11-27T06:34:04.057Z,7.97
2022-11-27T06:36:34.946Z,7.90
2022-11-27T06:39:06.859Z,7.60
2022-11-27T06:41:35.179Z,7.77
2022-11-27T06:44:04.011Z,7.70
2022-11-27T06:46:32.395Z,7.00
2022-11-27T06:49:01.590Z,7.53
2022-11-27T06:51:33.012Z,7.80
2022-11-27T06:54:04.445Z,7.23
2022-11-27T06:56:33.669Z,7.63
2022-11-27T06:59:03.148Z,7.93
2022-11-27T07:01:34.298Z,7.17
2022-11-27T07:04:02.629Z,6.93
2022-11-27T07:06:31.028Z,6.87
2022-11-27T07:08:59.420Z,6.43
2022-11-27T07:11:31.824Z,6.53
2022-11-27T07:14:02.196Z,6.97
2022-11-27T07:16:33.243Z,6.73
2022-11-27T07:19:04.987Z,6.10
2022-11-27T07:21:34.244Z,6.77
2022-11-27T07:24:02.917Z,7.00
2022-11-27T07:26:32.579Z,6.63
2022-11-27T07:29:00.989Z,5.90
2022-11-27T07:31:31.368Z,6.53
2022-11-27T07:34:00.060Z,6.20
2022-11-27T07:36:30.633Z,7.10
2022-11-27T07:38:59.110Z,6.60
2022-11-27T07:41:32.435Z,7.57
2022-11-27T07:44:03.851Z,7.00
2022-11-27T07:46:32.183Z,5.80
2022-11-27T07:49:01.327Z,6.50
2022-11-27T07:51:30.229Z,5.27
2022-11-27T07:53:58.610Z,6.90
2022-11-27T07:56:27.442Z,5.93
2022-11-27T07:58:55.727Z,6.40
2022-11-27T08:01:26.229Z,6.90
2022-11-27T08:03:54.607Z,6.33
2022-11-27T08:06:25.666Z,6.33
2022-11-27T08:08:56.025Z,6.10
2022-11-27T08:11:27.151Z,6.77
2022-11-27T08:13:59.163Z,8.00
2022-11-27T08:16:29.888Z,6.17
2022-11-27T08:18:58.541Z,6.40
2022-11-27T08:21:28.018Z,6.97
2022-11-27T08:23:58.185Z,6.80
2022-11-27T08:26:28.692Z,6.33
2022-11-27T08:28:57.797Z,7.93
2022-11-27T08:31:27.957Z,7.27
2022-11-27T08:33:56.308Z,7.60
2022-11-27T08:36:27.659Z,7.67
2022-11-27T08:38:56.740Z,7.97
2022-11-27T08:41:24.981Z,7.40
2022-11-27T08:43:53.237Z,7.33
2022-11-27T08:46:22.519Z,7.63
2022-11-27T08:48:52.156Z,8.33
2022-11-27T08:51:20.450Z,8.40
2022-11-27T08:53:48.787Z,8.87
2022-11-27T08:56:19.263Z,8.70
2022-11-27T08:58:48.183Z,8.10
2022-11-27T09:01:19.304Z,8.57
2022-11-27T09:03:48.208Z,9.77
2022-11-27T09:06:21.350Z,9.20
2022-11-27T09:08:50.505Z,9.43
2022-11-27T09:11:21.403Z,10.10
2022-11-27T09:13:50.276Z,9.80
2022-11-27T09:16:20.685Z,8.27
2022-11-27T09:18:51.898Z,9.70
2022-11-27T09:21:24.541Z,10.30
2022-11-27T09:23:55.233Z,10.17
2022-11-27T09:26:25.490Z,11.07
2022-11-27T09:28:54.868Z,13.00
2022-11-27T09:31:24.299Z,12.03
2022-11-27T09:33:52.674Z,12.87
2022-11-27T09:36:25.123Z,11.53
2022-11-27T09:38:53.607Z,11.30
2022-11-27T09:41:50.745Z,12.37
2022-11-27T09:44:35.273Z,12.37
2022-11-27T09:47:18.823Z,12.93
2022-11-27T09:49:52.009Z,11.63
2022-11-27T09:52:30.732Z,10.63
2022-11-27T09:55:04.943Z,11.70
2022-11-27T09:57:37.134Z,9.97
2022-11-27T10:00:11.703Z,11.00
2022-11-27T10:02:41.905Z,11.27
2022-11-27T10:05:20.075Z,11.03
2022-11-27T10:08:20.170Z,11.80
2022-11-27T10:11:06.690Z,14.70
2022-11-27T10:13:52.618Z,13.83
2022-11-27T10:16:27.828Z,14.17
2022-11-27T10:19:00.735Z,13.73
2022-11-27T10:21:40.239Z,15.40
2022-11-27T10:24:21.591Z,14.30
2022-11-27T10:26:54.586Z,12.97
2022-11-27T10:29:37.028Z,15.07
2022-11-27T10:32:33.023Z,13.37
2022-11-27T10:35:06.729Z,13.17
2022-11-27T10:37:41.577Z,13.43
2022-11-27T10:40:23.795Z,12.90
2022-11-27T10:42:59.849Z,13.23
2022-11-27T10:45:40.408Z,13.60
2022-11-27T10:48:08.812Z,12.60
2022-11-27T10:50:37.098Z,14.00
2022-11-27T10:53:08.663Z,12.70
2022-11-27T10:55:59.809Z,13.77
2022-11-27T10:58:34.358Z,15.20
2022-11-27T11:01:05.278Z,13.27
2022-11-27T11:03:34.381Z,12.37
2022-11-27T11:06:20.879Z,13.17
2022-11-27T11:08:50.863Z,11.90
2022-11-27T11:11:28.352Z,12.90
2022-11-27T11:13:56.795Z,13.23
2022-11-27T11:16:34.736Z,13.30
2022-11-27T11:19:03.859Z,14.73
2022-11-27T11:21:36.055Z,16.87
2022-11-27T11:24:08.070Z,15.40
2022-11-27T11:26:41.927Z,13.97
2022-11-27T11:29:29.726Z,12.83
2022-11-27T11:32:01.722Z,12.37
2022-11-27T11:34:31.568Z,13.70
2022-11-27T11:37:03.172Z,13.30
2022-11-27T11:39:34.547Z,12.77
2022-11-27T11:42:11.584Z,12.87
2022-11-27T11:44:41.603Z,11.97
2022-11-27T11:47:19.951Z,12.27
2022-11-27T11:49:48.584Z,12.63
2022-11-27T11:52:41.647Z,13.07
2022-11-27T11:55:20.615Z,13.30
2022-11-27T11:58:11.902Z,12.80
2022-11-27T12:01:19.280Z,12.10
2022-11-27T12:03:49.189Z,16.40
2022-11-27T12:06:51.405Z,14.77
2022-11-27T12:09:41.716Z,14.00
2022-11-27T12:12:26.690Z,13.47
2022-11-27T12:15:03.912Z,12.50
2022-11-27T12:17:51.162Z,12.83
2022-11-27T12:20:22.834Z,12.73
2022-11-27T12:23:39.279Z,12.53
2022-11-27T12:26:20.046Z,11.37
2022-11-27T12:29:44.247Z,11.47
2022-11-27T12:32:32.836Z,13.57
2022-11-27T12:35:22.147Z,12.23
2022-11-27T12:38:01.691Z,14.37
2022-11-27T12:40:46.790Z,19.13
2022-11-27T12:43:25.329Z,11.27
2022-11-27T12:46:02.015Z,10.80
2022-11-27T12:48:38.158Z,10.00
2022-11-27T12:51:11.301Z,14.70
2022-11-27T12:53:46.144Z,15.10
2022-11-27T12:56:22.160Z,13.07
2022-11-27T12:58:55.603Z,12.40
2022-11-27T13:01:30.016Z,15.07
2022-11-27T13:04:14.618Z,15.80
2022-11-27T13:06:51.384Z,13.40
2022-11-27T13:09:27.060Z,13.37
2022-11-27T13:11:56.907Z,12.57
2022-11-27T13:14:28.099Z,12.50
2022-11-27T13:17:02.023Z,12.10
2022-11-27T13:19:35.448Z,14.40
2022-11-27T13:22:07.584Z,10.90
2022-11-27T13:24:36.925Z,10.87
2022-11-27T13:27:10.068Z,12.13
2022-11-27T13:29:44.473Z,13.03
2022-11-27T13:32:22.955Z,14.10
2022-11-27T13:34:54.466Z,12.20
2022-11-27T13:37:33.222Z,11.03
2022-11-27T13:40:06.495Z,13.73
2022-11-27T13:42:37.188Z,12.80
2022-11-27T13:45:11.107Z,13.30
2022-11-27T13:47:43.570Z,13.13
2022-11-27T13:50:16.756Z,14.57
2022-11-27T13:52:54.745Z,13.50
2022-11-27T13:55:29.828Z,14.57
2022-11-27T13:58:01.095Z,14.07
2022-11-27T14:00:36.722Z,13.47
2022-11-27T14:03:05.963Z,12.27
2022-11-27T14:05:43.329Z,11.57
2022-11-27T14:08:24.054Z,12.60
2022-11-27T14:10:58.966Z,12.37
2022-11-27T14:13:40.483Z,11.80
2022-11-27T14:16:26.649Z,12.87
2022-11-27T14:18:58.656Z,12.63
2022-11-27T14:21:40.403Z,11.03
2022-11-27T14:24:35.857Z,11.37
2022-11-27T14:27:15.828Z,11.43
2022-11-27T14:29:44.326Z,12.73
2022-11-27T14:32:15.351Z,10.93
2022-11-27T14:34:44.148Z,12.00
2022-11-27T14:37:26.143Z,12.43
2022-11-27T14:39:55.150Z,12.37
2022-11-27T14:42:28.933Z,12.07
2022-11-27T14:45:06.411Z,11.93
2022-11-27T14:47:36.255Z,11.07
2022-11-27T14:50:05.104Z,11.50
2022-11-27T14:52:34.947Z,10.70
2022-11-27T14:55:04.658Z,12.60
2022-11-27T14:57:33.236Z,11.40
2022-11-27T15:00:16.853Z,11.70
2022-11-27T15:02:45.938Z,11.87
2022-11-27T15:05:24.236Z,12.17
2022-11-27T15:07:57.385Z,12.37
2022-11-27T15:10:37.341Z,13.03
2022-11-27T15:13:08.079Z,12.57
2022-11-27T15:15:42.868Z,12.37
2022-11-27T15:18:22.721Z,11.17
2022-11-27T15:20:52.570Z,17.93
2022-11-27T15:23:25.404Z,30.20
2022-11-27T15:26:14.300Z,15.50
2022-11-27T15:28:53.236Z,19.67
2022-11-27T15:31:32.694Z,17.40
2022-11-27T15:34:07.024Z,20.70
2022-11-27T15:36:41.852Z,15.90
2022-11-27T15:39:25.287Z,15.87
2022-11-27T15:41:56.724Z,15.17
2022-11-27T15:44:26.632Z,15.57
2022-11-27T15:46:56.799Z,15.40
2022-11-27T15:49:25.175Z,14.90
2022-11-27T15:51:53.732Z,13.80
2022-11-27T15:54:23.449Z,14.27
2022-11-27T15:56:51.818Z,14.03
2022-11-27T15:59:21.090Z,12.80
2022-11-27T16:01:50.384Z,13.30
2022-11-27T16:04:18.628Z,14.37
2022-11-27T16:06:46.859Z,13.00
2022-11-27T16:09:15.135Z,14.33
2022-11-27T16:11:45.019Z,14.13
2022-11-27T16:14:13.910Z,14.30
2022-11-27T16:16:42.558Z,15.07
2022-11-27T16:19:12.300Z,13.20
2022-11-27T16:21:40.537Z,14.53
2022-11-27T16:24:12.778Z,14.03
2022-11-27T16:26:41.733Z,13.57
2022-11-27T16:29:11.799Z,14.63
2022-11-27T16:31:40.662Z,13.20
2022-11-27T16:34:08.888Z,13.30
2022-11-27T16:36:37.394Z,13.30
2022-11-27T16:39:05.781Z,12.60
2022-11-27T16:41:34.024Z,14.10
2022-11-27T16:44:02.420Z,13.43
2022-11-27T16:46:32.450Z,14.07
2022-11-27T16:49:01.467Z,13.07
2022-11-27T16:51:33.445Z,12.10
2022-11-27T16:54:03.748Z,14.23
2022-11-27T16:56:33.789Z,16.03
2022-11-27T16:59:03.538Z,18.93
2022-11-27T17:01:36.038Z,14.70
2022-11-27T17:04:08.851Z,30.13
2022-11-27T17:06:39.875Z,16.80
2022-11-27T17:09:09.844Z,14.33
2022-11-27T17:11:42.994Z,14.73
2022-11-27T17:14:11.721Z,14.20
2022-11-27T17:16:42.835Z,14.93
2022-11-27T17:19:14.183Z,14.63
2022-11-27T17:21:43.154Z,14.07
2022-11-27T17:24:16.074Z,14.97
2022-11-27T17:26:46.492Z,14.17
2022-11-27T17:29:17.223Z,15.93
2022-11-27T17:31:47.077Z,14.80
2022-11-27T17:34:17.108Z,15.13
2022-11-27T17:36:46.106Z,15.27
2022-11-27T17:39:16.292Z,14.13
2022-11-27T17:41:45.806Z,15.27
2022-11-27T17:44:14.772Z,16.17
2022-11-27T17:46:45.394Z,14.80
2022-11-27T17:49:15.124Z,15.53
2022-11-27T17:51:43.894Z,14.93
2022-11-27T17:54:12.721Z,14.67
2022-11-27T17:56:41.061Z,14.50
2022-11-27T17:59:09.479Z,14.87
2022-11-27T18:01:37.864Z,13.77
2022-11-27T18:04:06.551Z,15.47
2022-11-27T18:06:36.209Z,14.93
2022-11-27T18:09:05.584Z,15.03
2022-11-27T18:11:34.856Z,14.13
2022-11-27T18:14:03.783Z,15.07
2022-11-27T18:16:34.824Z,14.60
2022-11-27T18:19:06.569Z,14.03
2022-11-27T18:21:37.312Z,15.67
2022-11-27T18:24:24.062Z,15.17
2022-11-27T18:27:08.144Z,15.17
2022-11-27T18:29:37.976Z,15.47
2022-11-27T18:32:06.862Z,16.03
2022-11-27T18:34:35.424Z,15.97
2022-11-27T18:37:06.178Z,14.93
2022-11-27T18:39:35.285Z,14.07
2022-11-27T18:42:05.092Z,14.87
2022-11-27T18:44:36.140Z,13.50
2022-11-27T18:47:13.072Z,13.00
2022-11-27T18:49:42.843Z,14.03
2022-11-27T18:52:13.017Z,12.97
2022-11-27T18:54:41.391Z,13.80
2022-11-27T18:57:11.117Z,13.23
2022-11-27T18:59:39.807Z,13.47
2022-11-27T19:02:09.265Z,13.20
2022-11-27T19:04:38.686Z,12.90
2022-11-27T19:07:07.160Z,13.00
2022-11-27T19:09:36.806Z,12.90
2022-11-27T19:12:05.926Z,12.93
2022-11-27T19:14:34.319Z,12.33
2022-11-27T19:17:02.695Z,12.43
2022-11-27T19:22:21.385Z,12.27
2022-11-27T19:24:51.105Z,11.73
2022-11-27T19:27:19.446Z,12.37
2022-11-27T19:29:48.943Z,12.37
2022-11-27T19:32:17.341Z,12.30
2022-11-27T19:34:45.722Z,12.20
2022-11-27T19:37:14.032Z,12.73
2022-11-27T19:39:42.379Z,12.27
2022-11-27T19:42:12.145Z,11.20
2022-11-27T19:44:41.016Z,11.17
2022-11-27T19:47:10.420Z,10.20
2022-11-27T19:49:38.753Z,10.77
2022-11-27T19:52:07.116Z,10.13
2022-11-27T19:54:35.479Z,11.10
2022-11-27T19:57:04.321Z,11.37
2022-11-27T19:59:34.024Z,10.17
2022-11-27T20:02:02.657Z,9.87
2022-11-27T20:04:31.076Z,10.40
2022-11-27T20:06:59.451Z,10.97
2022-11-27T20:09:27.789Z,11.10
2022-11-27T20:11:56.204Z,10.33
2022-11-27T20:14:24.599Z,10.27
2022-11-27T20:16:54.590Z,10.43
2022-11-27T20:19:23.251Z,10.50
2022-11-27T20:21:51.647Z,9.43
2022-11-27T20:24:20.078Z,10.13
2022-11-27T20:26:48.446Z,11.13
2022-11-27T20:29:16.769Z,9.60
2022-11-27T20:31:45.372Z,9.57
2022-11-27T20:34:22.059Z,11.20
2022-11-27T20:36:50.835Z,11.80
2022-11-27T20:39:21.687Z,10.50
2022-11-27T20:41:52.211Z,10.63
2022-11-27T20:44:22.327Z,10.33
2022-11-27T20:46:51.152Z,10.40
2022-11-27T20:49:20.939Z,10.93
2022-11-27T20:51:50.659Z,11.47
2022-11-27T20:54:19.344Z,10.03
2022-11-27T20:56:47.862Z,12.00
2022-11-27T20:59:16.162Z,11.63
2022-11-27T21:01:44.571Z,10.40
2022-11-27T21:04:23.456Z,10.77
2022-11-27T21:06:52.230Z,10.70
2022-11-27T21:09:21.940Z,10.47
2022-11-27T21:11:50.253Z,9.63
2022-11-27T21:14:18.964Z,11.30
2022-11-27T21:16:49.747Z,9.93
2022-11-27T21:19:22.062Z,11.23
2022-11-27T21:21:51.616Z,10.73
2022-11-27T21:24:23.425Z,10.90
2022-11-27T21:26:52.071Z,11.80
2022-11-27T21:29:25.312Z,11.63
2022-11-27T21:31:55.237Z,12.63
2022-11-27T21:34:25.601Z,11.67
2022-11-27T21:36:54.166Z,11.37
2022-11-27T21:39:23.874Z,11.43
2022-11-27T21:41:54.845Z,11.83
2022-11-27T21:44:25.162Z,13.20
2022-11-27T21:46:53.491Z,13.50
2022-11-27T21:49:22.394Z,13.60
2022-11-27T21:51:54.237Z,12.03
2022-11-27T21:54:23.423Z,13.13
2022-11-27T21:56:53.058Z,13.63
2022-11-27T21:59:21.772Z,13.77
2022-11-27T22:01:50.223Z,15.27
2022-11-27T22:04:18.727Z,15.10
2022-11-27T22:06:48.090Z,13.63
2022-11-27T22:09:18.508Z,14.10
2022-11-27T22:11:47.762Z,14.17
2022-11-27T22:14:17.323Z,15.20
2022-11-27T22:16:47.140Z,15.70
2022-11-27T22:19:16.023Z,16.97
2022-11-27T22:21:45.509Z,17.50
2022-11-27T22:24:18.887Z,17.43
2022-11-27T22:26:49.970Z,14.63
2022-11-27T22:29:18.527Z,16.30
2022-11-27T22:31:47.255Z,15.47
2022-11-27T22:34:17.101Z,15.83
2022-11-27T22:36:45.851Z,15.47
2022-11-27T22:39:14.112Z,15.50
2022-11-27T22:41:42.956Z,15.03
2022-11-27T22:44:20.922Z,15.03
2022-11-27T22:46:49.718Z,14.87
2022-11-27T22:49:19.630Z,15.57
2022-11-27T22:51:48.162Z,15.83
2022-11-27T22:54:17.934Z,15.63
2022-11-27T22:56:47.314Z,14.77
2022-11-27T22:59:32.252Z,16.03
2022-11-27T23:02:01.546Z,16.13
2022-11-27T23:04:29.921Z,17.47
2022-11-27T23:06:58.183Z,15.87
2022-11-27T23:09:26.502Z,14.97
2022-11-27T23:11:56.438Z,15.20
2022-11-27T23:14:27.170Z,15.10
2022-11-27T23:16:55.646Z,13.60
2022-11-27T23:19:24.159Z,15.53
2022-11-27T23:21:52.535Z,14.20
2022-11-27T23:24:20.961Z,14.50
2022-11-27T23:26:49.291Z,13.23
2022-11-27T23:29:17.552Z,12.93
2022-11-27T23:31:47.190Z,13.13
2022-11-27T23:34:16.475Z,14.03
2022-11-27T23:36:44.823Z,13.30
2022-11-27T23:39:14.989Z,13.40
2022-11-27T23:41:43.859Z,12.73
2022-11-27T23:44:12.333Z,11.77
2022-11-27T23:46:40.742Z,12.97
2022-11-27T23:49:10.384Z,11.97
2022-11-27T23:51:38.660Z,12.77
2022-11-27T23:54:10.223Z,12.13
2022-11-27T23:56:39.873Z,11.30
2022-11-27T23:59:08.712Z,11.77
